Time;durP1;ratioP1;P1;durP2;ratioP2;P2;SDS_P1;SDS_P2;PMS_P1;PMS_P2;Temp;Humidity;BMP_temperature;BMP_pressure;BME280_temperature;BME280_humidity;BME280_pressure;Samples;Min_cycle;Max_cycle;Signal;HPM_P1;HPM_P2
2023/07/03 00:00:54;;;;;;;;;7.67;5.67;;;;;27.61;35.74;101308.66;5078324;28;45503;-77
2023/07/03 00:03:19;;;;;;;;;4.67;4.67;;;;;27.64;35.83;101305.56;5078564;28;45402;-76
2023/07/03 00:05:46;;;;;;;;;3.67;3.67;;;;;27.63;35.45;101298.59;5078448;28;45371;-77
2023/07/03 00:08:12;;;;;;;;;5.33;4.00;;;;;27.65;35.17;101309.06;5078299;28;45365;-76
2023/07/03 00:10:37;;;;;;;;;3.67;3.67;;;;;27.61;35.83;101306.78;5078484;28;45388;-76
2023/07/03 00:13:03;;;;;;;;;6.00;4.00;;;;;27.65;35.92;101309.88;5078386;28;45395;-77
2023/07/03 00:15:29;;;;;;;;;4.00;4.00;;;;;27.65;35.29;101309.06;5077935;28;46181;-77
2023/07/03 00:17:54;;;;;;;;;5.67;3.00;;;;;27.62;35.91;101302.28;5078310;28;45351;-77
2023/07/03 00:20:19;;;;;;;;;6.33;5.67;;;;;27.63;35.80;101302.06;5056280;28;54114;-77
2023/07/03 00:22:48;;;;;;;;;5.00;4.67;;;;;27.65;35.83;101307.22;5057916;28;45288;-76
2023/07/03 00:25:17;;;;;;;;;3.00;3.00;;;;;27.66;35.59;101300.84;5057663;28;47100;-76
2023/07/03 00:27:43;;;;;;;;;7.33;5.00;;;;;27.66;35.85;101302.69;5057640;28;45387;-77
2023/07/03 00:30:10;;;;;;;;;3.33;3.33;;;;;27.63;35.75;101296.72;5057538;28;45384;-77
2023/07/03 00:32:35;;;;;;;;;4.67;3.00;;;;;27.65;35.59;101290.34;5057136;28;45468;-77
2023/07/03 00:35:01;;;;;;;;;4.33;4.00;;;;;27.64;35.87;101292.19;5057491;28;47258;-77
2023/07/03 00:37:26;;;;;;;;;6.00;3.67;;;;;27.64;35.97;101289.50;5057508;28;45503;-77
2023/07/03 00:39:52;;;;;;;;;4.00;4.00;;;;;27.66;35.79;101292.81;5057099;28;45361;-76
2023/07/03 00:42:17;;;;;;;;;3.00;3.00;;;;;27.65;35.81;101296.50;5056968;28;45523;-77
2023/07/03 00:44:42;;;;;;;;;4.00;3.00;;;;;27.66;35.51;101295.50;5057119;28;47397;-77
2023/07/03 00:47:10;;;;;;;;;4.67;3.67;;;;;27.68;35.38;101297.94;5057515;28;45436;-76
2023/07/03 00:49:36;;;;;;;;;5.00;5.00;;;;;27.65;35.54;101287.66;5057544;28;45386;-77
2023/07/03 00:52:02;;;;;;;;;5.33;3.33;;;;;27.66;35.73;101290.16;5057332;28;45428;-77
2023/07/03 00:54:28;;;;;;;;;7.00;4.00;;;;;27.67;36.19;101291.78;5057505;28;45360;-76
2023/07/03 00:56:54;;;;;;;;;8.67;5.67;;;;;27.67;35.67;101289.09;5057223;28;45309;-77
2023/07/03 00:59:19;;;;;;;;;6.00;4.33;;;;;27.67;35.51;101289.09;5057037;28;45372;-76
2023/07/03 01:02:10;;;;;;;;;5.00;4.00;;;;;27.71;36.00;101286.84;5057420;28;45464;-77
2023/07/03 01:04:54;;;;;;;;;3.67;3.00;;;;;27.68;36.29;101281.91;5057156;28;46415;-77
2023/07/03 01:07:24;;;;;;;;;5.00;5.00;;;;;27.70;35.71;101287.88;5057144;28;45274;-77
2023/07/03 01:09:57;;;;;;;;;4.00;4.00;;;;;27.70;35.99;101287.88;5057148;28;45405;-77
2023/07/03 01:12:26;;;;;;;;;3.00;3.00;;;;;27.66;35.72;101290.16;5057122;28;45503;-76
2023/07/03 01:14:53;;;;;;;;;5.00;5.00;;;;;27.68;35.99;101282.75;5056603;28;46081;-77
2023/07/03 01:17:19;;;;;;;;;5.00;3.67;;;;;27.67;36.13;101281.09;5056825;28;45292;-77
2023/07/03 01:19:47;;;;;;;;;4.00;4.00;;;;;27.68;35.80;101285.41;5069101;28;45270;-76
2023/07/03 01:22:18;;;;;;;;;4.00;3.00;;;;;27.68;36.35;101279.25;5077064;28;45360;-76
2023/07/03 01:24:53;;;;;;;;;4.33;4.00;;;;;27.66;36.09;101276.78;5077209;28;45462;-76
2023/07/03 01:27:22;;;;;;;;;5.00;3.00;;;;;27.69;36.21;101284.38;5076505;28;45375;-77
2023/07/03 01:29:50;;;;;;;;;4.00;4.00;;;;;27.67;36.27;101286.44;5077319;28;45653;-76
2023/07/03 01:32:19;;;;;;;;;4.00;4.00;;;;;27.65;36.09;101277.81;5077247;28;45522;-77
2023/07/03 01:34:46;;;;;;;;;4.00;4.00;;;;;27.66;35.73;101275.97;5076915;28;46414;-76
2023/07/03 01:37:13;;;;;;;;;5.00;5.00;;;;;27.67;35.70;101280.25;5076825;28;45295;-76
2023/07/03 01:39:42;;;;;;;;;3.67;3.33;;;;;27.67;36.44;101277.59;5076718;28;45277;-77
2023/07/03 01:42:08;;;;;;;;;3.67;3.67;;;;;27.67;35.60;101267.72;5076083;28;45351;-77
2023/07/03 01:44:34;;;;;;;;;4.67;4.67;;;;;27.70;35.62;101271.81;5076823;28;46022;-77
2023/07/03 01:47:04;;;;;;;;;4.33;3.67;;;;;27.69;35.77;101271.00;5076247;28;45728;-77
2023/07/03 01:49:29;;;;;;;;;6.00;4.00;;;;;27.67;35.67;101267.72;5076860;28;45364;-76
2023/07/03 01:52:19;;;;;;;;;7.00;5.33;;;;;27.70;35.89;101277.16;5076267;28;45428;-77
2023/07/03 01:55:09;;;;;;;;;5.33;3.00;;;;;27.70;36.32;101278.00;5076655;28;46148;-76
2023/07/03 01:57:59;;;;;;;;;5.33;4.00;;;;;27.69;35.72;101280.91;5058123;28;45420;-76
2023/07/03 02:00:35;;;;;;;;;4.00;4.00;;;;;27.67;36.05;101278.41;5076716;28;45457;-77
2023/07/03 02:03:07;;;;;;;;;4.67;3.67;;;;;27.69;35.78;101280.91;5076761;28;45350;-76
2023/07/03 02:05:38;;;;;;;;;4.33;3.00;;;;;27.68;36.38;101273.91;5076500;28;46072;-76
2023/07/03 02:08:07;;;;;;;;;5.67;4.00;;;;;27.67;36.07;101280.25;5076336;28;45502;-76
2023/07/03 02:10:33;;;;;;;;;6.33;3.33;;;;;27.67;35.80;101281.09;5076755;28;45403;-77
2023/07/03 02:12:58;;;;;;;;;9.33;4.33;;;;;27.67;36.37;101281.09;5075842;28;45526;-77
2023/07/03 02:15:23;;;;;;;;;3.33;2.33;;;;;27.69;36.39;101275.53;5076366;28;46445;-76
2023/07/03 02:17:53;;;;;;;;;4.33;4.33;;;;;27.70;36.26;101269.16;5076235;28;45321;-77
2023/07/03 02:20:18;;;;;;;;;4.33;4.33;;;;;27.68;36.37;101269.38;5076384;28;45372;-76
2023/07/03 02:22:44;;;;;;;;;5.00;5.00;;;;;27.69;36.35;101262.97;5076294;28;45372;-76
2023/07/03 02:25:10;;;;;;;;;4.00;4.00;;;;;27.69;36.01;101262.19;5076172;28;45324;-77
2023/07/03 02:27:36;;;;;;;;;4.67;4.00;;;;;27.69;36.21;101257.63;5076290;28;45446;-76
2023/07/03 02:30:03;;;;;;;;;3.67;3.67;;;;;27.70;35.72;101256.63;5076318;28;45347;-76
2023/07/03 02:32:37;;;;;;;;;4.00;3.00;;;;;27.69;36.50;101254.16;5076227;28;45529;-77
2023/07/03 02:35:03;;;;;;;;;6.00;5.00;;;;;27.67;36.43;101250.84;5075936;28;46083;-77
2023/07/03 02:37:29;;;;;;;;;9.67;5.67;;;;;27.66;36.50;101250.06;5075874;28;45389;-77
2023/07/03 02:39:54;;;;;;;;;5.33;4.00;;;;;27.67;36.35;101251.69;5075791;28;45215;-77
2023/07/03 02:42:19;;;;;;;;;5.00;5.00;;;;;27.67;36.02;101248.19;5075936;28;45406;-76
2023/07/03 02:44:45;;;;;;;;;6.00;4.33;;;;;27.67;35.80;101246.34;5075945;28;45366;-76
2023/07/03 02:47:10;;;;;;;;;4.00;4.00;;;;;27.65;36.63;101242.22;5076038;28;45418;-77
2023/07/03 02:49:36;;;;;;;;;5.00;4.00;;;;;27.63;36.43;101253.97;5075991;28;45658;-76
2023/07/03 02:52:01;;;;;;;;;4.33;4.33;;;;;27.67;36.48;101249.00;5075886;28;45309;-76
2023/07/03 02:54:26;;;;;;;;;7.00;4.33;;;;;27.67;35.82;101242.84;5075531;28;45311;-77
2023/07/03 02:56:52;;;;;;;;;6.67;5.00;;;;;27.68;36.47;101248.00;5057545;28;45424;-77
2023/07/03 02:59:17;;;;;;;;;5.33;4.00;;;;;27.66;36.52;101241.22;5076000;28;45372;-77
2023/07/03 03:01:42;;;;;;;;;6.33;4.00;;;;;27.68;36.53;101245.31;5075879;28;45418;-76
2023/07/03 03:04:08;;;;;;;;;2.00;2.00;;;;;27.68;36.67;101242.66;5076963;28;45861;-77
2023/07/03 03:06:33;;;;;;;;;3.33;3.33;;;;;27.68;35.90;101237.31;5079306;28;45451;-76
2023/07/03 03:08:58;;;;;;;;;4.67;4.00;;;;;27.68;36.49;101234.63;5079085;28;45251;-76
2023/07/03 03:11:24;;;;;;;;;7.00;6.00;;;;;27.65;36.46;101231.53;5079542;28;45339;-76
2023/07/03 03:13:49;;;;;;;;;6.00;4.00;;;;;27.67;35.84;101232.16;5079100;28;45984;-77
2023/07/03 03:16:14;;;;;;;;;4.00;3.00;;;;;27.69;35.93;101227.44;5079207;28;45277;-76
2023/07/03 03:18:40;;;;;;;;;5.00;4.00;;;;;27.68;36.02;101229.28;5079240;28;45289;-77
2023/07/03 03:21:05;;;;;;;;;7.67;6.00;;;;;27.66;36.54;101231.34;5079252;28;45379;-76
2023/07/03 03:23:30;;;;;;;;;4.00;4.00;;;;;27.65;36.03;101223.53;5078416;28;51487;-76
2023/07/03 03:25:56;;;;;;;;;5.00;5.00;;;;;27.68;36.35;101229.28;5079025;28;45376;-77
2023/07/03 03:28:21;;;;;;;;;4.33;4.00;;;;;27.67;36.15;101229.47;5079136;28;45403;-76
2023/07/03 03:30:46;;;;;;;;;6.00;4.00;;;;;27.71;35.92;101233.38;5078936;28;45788;-76
2023/07/03 03:33:12;;;;;;;;;7.33;4.33;;;;;27.70;36.46;101226.38;5078953;28;46784;-76
2023/07/03 03:35:37;;;;;;;;;5.00;3.00;;;;;27.69;36.30;101222.88;5078920;28;45448;-76
2023/07/03 03:38:03;;;;;;;;;5.00;4.33;;;;;27.68;36.32;101218.59;5078567;28;45383;-76
2023/07/03 03:40:28;;;;;;;;;4.33;4.00;;;;;27.68;35.91;101217.75;5079001;28;45536;-76
2023/07/03 03:42:53;;;;;;;;;4.00;4.00;;;;;27.68;36.21;101221.25;5078422;28;47139;-77
2023/07/03 03:45:19;;;;;;;;;4.00;3.00;;;;;27.68;35.95;101226.59;5078816;28;45293;-76
2023/07/03 03:47:45;;;;;;;;;6.00;4.33;;;;;27.69;36.40;101216.75;5078854;28;45340;-76
2023/07/03 03:50:11;;;;;;;;;2.00;2.00;;;;;27.68;36.10;101220.44;5078777;27;45276;-76
2023/07/03 03:52:37;;;;;;;;;5.00;5.00;;;;;27.67;36.36;101222.28;5078223;28;46394;-77
2023/07/03 03:55:02;;;;;;;;;3.00;3.00;;;;;27.69;36.69;101222.09;5078488;28;45313;-76
2023/07/03 03:57:28;;;;;;;;;4.33;4.33;;;;;27.69;36.72;101222.09;5078708;28;45544;-76
2023/07/03 03:59:53;;;;;;;;;5.00;4.00;;;;;27.67;36.57;101222.28;5078770;28;45425;-77
2023/07/03 04:02:18;;;;;;;;;4.00;3.33;;;;;27.66;36.06;101217.97;5078322;28;46169;-76
2023/07/03 04:04:44;;;;;;;;;5.67;5.00;;;;;27.67;36.12;101224.13;5078396;28;45486;-77
2023/07/03 04:07:10;;;;;;;;;3.00;3.00;;;;;27.68;36.08;101229.28;5078155;28;45315;-77
2023/07/03 04:09:35;;;;;;;;;6.00;4.00;;;;;27.70;35.97;101215.69;5078478;28;45388;-76
2023/07/03 04:12:00;;;;;;;;;7.00;5.33;;;;;27.69;36.82;101212.19;5078328;28;45483;-77
2023/07/03 04:14:26;;;;;;;;;2.67;2.33;;;;;27.70;35.94;101205.81;5078007;28;45353;-77
2023/07/03 04:16:51;;;;;;;;;2.67;2.67;;;;;27.70;36.53;101210.34;5077236;27;45376;-76
2023/07/03 04:19:18;;;;;;;;;4.67;3.33;;;;;27.68;36.61;101212.41;5078127;28;45368;-76
2023/07/03 04:21:45;;;;;;;;;4.33;4.00;;;;;27.69;36.20;101206.06;5077794;28;45774;-76
2023/07/03 04:24:10;;;;;;;;;7.67;4.67;;;;;27.68;36.35;101217.75;5077787;28;45318;-77
2023/07/03 04:26:38;;;;;;;;;3.00;3.00;;;;;27.68;36.78;101207.06;5077971;28;45234;-76
2023/07/03 04:29:04;;;;;;;;;5.33;4.00;;;;;27.67;36.02;101211.59;5078332;28;45388;-77
2023/07/03 04:31:31;;;;;;;;;3.00;3.00;;;;;27.67;36.38;101203.56;5077813;28;45490;-76
2023/07/03 04:33:56;;;;;;;;;9.33;5.00;;;;;27.67;36.24;101206.25;5077896;28;45376;-77
2023/07/03 04:36:22;;;;;;;;;4.00;3.00;;;;;27.68;36.07;101207.91;5077717;28;45345;-77
2023/07/03 04:38:47;;;;;;;;;7.33;5.00;;;;;27.66;36.08;101207.28;5078005;28;45370;-76
2023/07/03 04:41:14;;;;;;;;;6.00;5.00;;;;;27.69;36.48;101212.19;5077733;28;45329;-77
2023/07/03 04:43:44;;;;;;;;;3.00;3.00;;;;;27.67;36.65;101202.75;5077860;28;45375;-77
2023/07/03 04:46:11;;;;;;;;;5.00;4.00;;;;;27.68;36.26;101204.41;5077662;28;45402;-76
2023/07/03 04:48:36;;;;;;;;;3.33;2.67;;;;;27.67;36.17;101197.41;5077867;28;45363;-76
2023/07/03 04:51:03;;;;;;;;;9.00;6.00;;;;;27.70;36.82;101196.97;5076960;28;46530;-76
2023/07/03 04:53:29;;;;;;;;;2.67;2.00;;;;;27.70;36.75;101192.47;5077725;28;45459;-76
2023/07/03 04:55:54;;;;;;;;;5.67;4.00;;;;;27.69;36.78;101195.38;5078064;28;45339;-77
2023/07/03 04:58:21;;;;;;;;;6.00;6.00;;;;;27.69;36.62;101198.03;5077657;28;45463;-77
2023/07/03 05:00:47;;;;;;;;;6.00;6.00;;;;;27.68;36.62;101191.84;5077449;28;47028;-77
2023/07/03 05:03:12;;;;;;;;;4.67;4.67;;;;;27.72;36.50;101202.94;5077332;28;45398;-76
2023/07/03 05:05:37;;;;;;;;;4.67;4.00;;;;;27.73;36.74;101199.25;5077449;28;45210;-76
2023/07/03 05:08:03;;;;;;;;;5.00;4.00;;;;;27.72;36.64;101197.59;5077583;28;45446;-76
2023/07/03 05:10:30;;;;;;;;;7.33;6.00;;;;;27.74;36.25;101215.06;5077475;28;46216;-76
2023/07/03 05:12:55;;;;;;;;;5.00;3.33;;;;;27.73;36.79;101202.75;5079578;28;45382;-76
2023/07/03 05:15:20;;;;;;;;;4.33;4.00;;;;;27.75;36.08;101207.88;5077707;28;45256;-74
2023/07/03 05:17:54;;;;;;;;;5.00;4.33;;;;;27.76;36.11;101216.72;5078091;28;45375;-77
2023/07/03 05:20:22;;;;;;;;;7.00;5.67;;;;;27.74;36.83;101219.56;5076708;28;46188;-76
2023/07/03 05:22:47;;;;;;;;;7.00;5.67;;;;;27.76;36.72;101214.88;5076890;28;45384;-78
2023/07/03 05:25:14;;;;;;;;;4.00;4.00;;;;;27.77;36.19;101215.66;5077396;28;45377;-76
2023/07/03 05:27:40;;;;;;;;;6.33;4.33;;;;;27.78;36.79;101225.34;5076559;28;45566;-76
2023/07/03 05:30:07;;;;;;;;;7.00;5.00;;;;;27.79;36.84;101216.28;5077078;28;46040;-75
2023/07/03 05:32:32;;;;;;;;;6.33;6.00;;;;;27.75;36.83;101213.22;5077138;28;45285;-74
2023/07/03 05:34:59;;;;;;;;;5.67;3.67;;;;;27.78;36.45;101209.28;5076690;28;45281;-75
2023/07/03 05:37:24;;;;;;;;;5.33;5.33;;;;;27.80;37.05;101215.28;5076969;28;45627;-75
2023/07/03 05:39:50;;;;;;;;;5.00;5.00;;;;;27.79;36.83;101209.06;5076965;28;45340;-80
2023/07/03 05:42:19;;;;;;;;;6.00;5.00;;;;;27.78;37.20;101215.47;5076795;28;45381;-76
2023/07/03 05:44:45;;;;;;;;;5.67;5.67;;;;;27.78;37.33;101218.16;5077181;28;45339;-79
2023/07/03 05:47:12;;;;;;;;;6.00;5.00;;;;;27.78;37.33;101220.81;5074799;27;45416;-77
2023/07/03 05:49:38;;;;;;;;;9.00;6.00;;;;;27.77;36.81;101235.19;5075316;28;47275;-78
2023/07/03 05:52:04;;;;;;;;;6.67;5.00;;;;;27.79;37.36;101235.81;5075743;28;45358;-76
2023/07/03 05:54:29;;;;;;;;;7.33;5.00;;;;;27.77;37.42;101240.53;5076623;28;45389;-81
2023/07/03 05:56:56;;;;;;;;;5.67;4.67;;;;;27.80;37.40;101234.81;5077080;28;45376;-83
2023/07/03 05:59:21;;;;;;;;;8.33;6.67;;;;;27.82;37.18;101243.44;5077037;28;45495;-79
2023/07/03 06:01:47;;;;;;;;;4.33;4.00;;;;;27.82;37.34;101245.28;5076747;28;45360;-78
2023/07/03 06:04:12;;;;;;;;;5.33;5.00;;;;;27.81;37.40;101241.00;5076441;28;45406;-78
2023/07/03 06:06:38;;;;;;;;;5.67;5.00;;;;;27.81;37.43;101241.81;5076480;28;45402;-78
2023/07/03 06:09:03;;;;;;;;;7.33;5.33;;;;;27.83;37.67;101241.59;5075450;28;47010;-79
2023/07/03 06:11:29;;;;;;;;;5.00;5.00;;;;;27.97;37.38;101247.72;5076523;28;45364;-79
2023/07/03 06:13:54;;;;;;;;;5.67;5.67;;;;;28.17;36.75;101254.84;5072292;28;45434;-76
2023/07/03 06:16:19;;;;;;;;;8.33;6.67;;;;;28.27;36.54;101254.38;5067590;28;45520;-72
2023/07/03 06:18:45;;;;;;;;;9.00;7.67;;;;;28.17;35.62;101252.16;5071351;28;45440;-76
2023/07/03 06:21:10;;;;;;;;;9.00;6.67;;;;;28.02;35.97;101252.44;5075821;28;45388;-78
2023/07/03 06:23:35;;;;;;;;;8.00;8.00;;;;;27.88;36.32;101254.31;5076201;28;45368;-78
2023/07/03 06:26:00;;;;;;;;;8.00;8.00;;;;;27.87;36.89;101260.72;5076277;28;45420;-78
2023/07/03 06:28:26;;;;;;;;;5.00;5.00;;;;;27.89;36.32;101255.97;5076374;28;45247;-78
2023/07/03 06:30:51;;;;;;;;;5.67;5.00;;;;;27.95;36.30;101257.78;5076306;28;45399;-78
2023/07/03 06:33:16;;;;;;;;;6.33;5.67;;;;;28.00;36.79;101262.53;5076019;28;45527;-78
2023/07/03 06:35:42;;;;;;;;;6.67;5.67;;;;;28.01;36.12;101264.16;5076498;28;45438;-78
2023/07/03 06:38:07;;;;;;;;;6.00;5.00;;;;;28.04;36.84;101261.06;5073591;28;48327;-79
2023/07/03 06:40:33;;;;;;;;;6.33;5.33;;;;;28.06;36.89;101262.50;5075984;28;45362;-78
2023/07/03 06:42:58;;;;;;;;;6.33;6.33;;;;;28.09;36.83;101255.91;5075995;28;45494;-78
2023/07/03 06:45:23;;;;;;;;;6.00;6.00;;;;;28.07;36.53;101257.97;5076114;28;45427;-78
2023/07/03 06:47:49;;;;;;;;;5.00;4.33;;;;;28.10;36.49;101262.09;5075774;28;46882;-78
2023/07/03 06:50:14;;;;;;;;;7.00;7.00;;;;;28.10;36.41;101262.91;5075730;28;45374;-78
2023/07/03 06:52:41;;;;;;;;;6.67;6.67;;;;;28.10;37.04;101268.25;5076017;28;45894;-77
2023/07/03 06:55:07;;;;;;;;;5.67;5.00;;;;;28.11;36.35;101269.06;5075986;28;45257;-77
2023/07/03 06:57:35;;;;;;;;;6.33;6.00;;;;;28.10;36.86;101270.09;5075531;28;47163;-78
2023/07/03 07:00:01;;;;;;;;;5.00;5.00;;;;;28.11;37.12;101269.88;5076107;28;45326;-78
2023/07/03 07:02:26;;;;;;;;;7.00;6.00;;;;;28.12;36.79;101273.38;5075524;28;45198;-78
2023/07/03 07:04:55;;;;;;;;;7.33;7.00;;;;;28.12;36.56;101278.72;5075784;28;45269;-78
2023/07/03 07:07:20;;;;;;;;;8.67;7.00;;;;;28.11;36.51;101277.91;5075573;28;45401;-77
2023/07/03 07:09:46;;;;;;;;;7.67;6.67;;;;;28.11;36.71;101285.94;5075677;28;45387;-77
2023/07/03 07:12:11;;;;;;;;;6.67;6.00;;;;;28.11;36.80;101277.09;5075807;28;45396;-78
2023/07/03 07:14:36;;;;;;;;;9.00;7.33;;;;;28.09;36.95;101276.47;5075658;28;45421;-78
2023/07/03 07:17:02;;;;;;;;;8.00;7.33;;;;;28.11;37.04;101277.91;5075103;28;47280;-77
2023/07/03 07:19:27;;;;;;;;;8.33;6.67;;;;;28.08;36.70;101286.34;5075466;28;45321;-78
2023/07/03 07:21:52;;;;;;;;;6.00;6.00;;;;;28.10;36.52;101296.84;5075491;28;45352;-75
2023/07/03 07:24:20;;;;;;;;;6.67;6.67;;;;;28.08;36.70;101297.03;5075363;28;45486;-78
2023/07/03 07:26:48;;;;;;;;;8.00;5.00;;;;;28.07;36.60;101300.78;5075560;28;46118;-77
2023/07/03 07:29:13;;;;;;;;;7.00;6.00;;;;;28.02;36.86;101293.38;5075332;28;45359;-77
2023/07/03 07:31:39;;;;;;;;;5.00;5.00;;;;;28.07;36.94;101309.63;5075166;28;45372;-75
2023/07/03 07:34:06;;;;;;;;;6.67;6.00;;;;;28.07;37.20;101298.09;5075416;28;45384;-78
2023/07/03 07:36:32;;;;;;;;;5.67;4.00;;;;;28.07;37.21;101300.78;5075311;28;45760;-77
2023/07/03 07:38:59;;;;;;;;;7.00;5.67;;;;;28.14;36.83;101306.09;5075188;28;45355;-78
2023/07/03 07:41:25;;;;;;;;;6.33;6.33;;;;;28.18;37.25;101307.31;5075369;28;45242;-77
2023/07/03 07:43:51;;;;;;;;;5.00;5.00;;;;;28.18;37.05;101304.66;5075304;28;45348;-77
2023/07/03 07:46:17;;;;;;;;;4.33;4.33;;;;;28.21;36.68;101300.72;5074790;28;45261;-78
2023/07/03 07:48:43;;;;;;;;;6.00;6.00;;;;;28.25;37.38;101302.75;5075204;28;45299;-78
2023/07/03 07:51:10;;;;;;;;;6.33;5.00;;;;;28.30;36.90;101310.16;5077898;27;45305;-77
2023/07/03 07:53:35;;;;;;;;;5.00;3.00;;;;;28.31;37.88;101314.47;5078709;28;45535;-78
2023/07/03 07:56:01;;;;;;;;;5.67;3.67;;;;;28.31;37.45;101311.81;5078260;28;47078;-78
2023/07/03 07:58:27;;;;;;;;;9.00;6.00;;;;;28.35;36.95;101314.84;5078666;28;45627;-78
2023/07/03 08:00:54;;;;;;;;;7.00;5.33;;;;;28.35;36.86;101315.69;5078187;28;45486;-77
2023/07/03 08:03:19;;;;;;;;;6.33;5.00;;;;;28.37;36.92;101318.13;5078535;28;45371;-77
2023/07/03 08:05:45;;;;;;;;;6.00;5.00;;;;;28.38;37.09;101322.47;5078243;28;45386;-77
2023/07/03 08:08:10;;;;;;;;;7.00;7.00;;;;;28.37;36.88;101315.47;5078369;28;45317;-78
2023/07/03 08:10:36;;;;;;;;;5.67;5.00;;;;;28.34;36.80;101306.00;5078524;28;45357;-79
2023/07/03 08:13:01;;;;;;;;;5.00;5.00;;;;;28.37;37.32;101321.63;5078545;28;45276;-80
2023/07/03 08:15:27;;;;;;;;;6.33;5.00;;;;;28.35;37.36;101307.66;5077814;28;46133;-76
2023/07/03 08:17:52;;;;;;;;;6.00;6.00;;;;;28.38;36.90;101312.59;5077998;28;45191;-76
2023/07/03 08:20:18;;;;;;;;;6.33;4.33;;;;;28.37;36.86;101308.25;5078202;28;45242;-74
2023/07/03 08:22:43;;;;;;;;;4.00;3.33;;;;;28.38;36.67;101314.44;5078325;28;45515;-74
2023/07/03 08:25:10;;;;;;;;;3.33;3.33;;;;;28.37;36.52;101316.28;5078043;28;47924;-74
2023/07/03 08:27:36;;;;;;;;;7.33;3.67;;;;;28.39;36.71;101326.78;5077763;28;45375;-77
2023/07/03 08:30:06;;;;;;;;;3.33;3.33;;;;;28.37;36.63;101320.81;5077789;28;45408;-77
2023/07/03 08:32:32;;;;;;;;;3.33;3.00;;;;;28.34;36.33;101324.72;5078228;28;45293;-77
2023/07/03 08:34:57;;;;;;;;;4.67;3.00;;;;;28.35;36.30;101326.38;5077852;28;47178;-77
2023/07/03 08:37:22;;;;;;;;;4.67;4.33;;;;;28.33;36.10;101330.31;5077933;28;45221;-77
2023/07/03 08:39:48;;;;;;;;;3.00;3.00;;;;;28.29;36.28;101327.22;5077998;28;45379;-77
2023/07/03 08:42:30;;;;;;;;;6.00;3.67;;;;;28.32;36.31;101337.50;5077680;28;45353;-79
2023/07/03 08:44:57;;;;;;;;;4.33;4.00;;;;;28.36;35.75;101337.91;5077814;28;46517;-78
2023/07/03 08:47:26;;;;;;;;;4.00;3.67;;;;;28.36;36.21;101333.41;5078591;28;45300;-86
2023/07/03 08:49:53;;;;;;;;;6.00;3.00;;;;;28.37;35.82;101336.88;5077844;28;45426;-82
2023/07/03 08:52:26;;;;;;;;;7.00;4.00;;;;;28.42;36.14;101339.72;5077501;28;45520;-79
2023/07/03 08:54:53;;;;;;;;;5.33;4.33;;;;;28.44;36.66;101343.03;5077430;28;47173;-78
2023/07/03 08:57:20;;;;;;;;;7.33;4.00;;;;;28.48;36.30;101343.44;5077131;28;45334;-79
2023/07/03 08:59:46;;;;;;;;;5.00;5.00;;;;;28.50;36.60;101338.69;5078118;28;45368;-90
2023/07/03 09:02:52;;;;;;;;;5.00;5.00;;;;;28.51;36.76;101346.53;5077007;28;45283;-78
2023/07/03 09:05:36;;;;;;;;;3.67;3.67;;;;;28.50;36.36;101339.53;5078170;28;46166;-89
2023/07/03 09:08:07;;;;;;;;;7.00;4.00;;;;;28.52;36.78;101344.69;5077991;28;45357;-88
2023/07/03 09:10:40;;;;;;;;;2.33;2.00;;;;;28.51;36.84;101337.69;5077989;28;45376;-89
2023/07/03 09:13:10;;;;;;;;;4.33;4.33;;;;;28.51;36.70;101338.50;5077823;27;45424;-89
2023/07/03 09:16:00;;;;;;;;;5.00;4.00;;;;;28.52;36.20;101345.47;5077809;28;46223;-89
2023/07/03 09:18:38;;;;;;;;;7.33;3.33;;;;;28.54;36.36;101349.81;5077422;28;45447;-89
2023/07/03 09:21:03;;;;;;;;;5.00;4.00;;;;;28.54;36.76;101347.13;5078012;28;45387;-89
2023/07/03 09:23:57;;;;;;;;;5.67;2.33;;;;;28.57;36.54;101349.41;5077966;28;45667;-91
2023/07/03 09:26:43;;;;;;;;;3.00;2.33;;;;;28.60;36.37;101348.94;4976707;28;46274;-91
2023/07/03 09:29:11;;;;;;;;;6.33;4.00;;;;;28.61;36.41;101354.09;4980078;28;45391;-91
2023/07/03 09:31:36;;;;;;;;;3.00;3.00;;;;;28.61;36.86;101346.06;4976683;28;45359;-90
2023/07/03 09:34:02;;;;;;;;;4.00;3.00;;;;;28.63;36.75;101353.88;4976554;28;45217;-89
2023/07/03 09:36:35;;;;;;;;;5.00;2.00;;;;;28.64;36.81;101360.88;4976239;28;45528;-90
2023/07/03 09:39:12;;;;;;;;;4.00;4.00;;;;;28.62;36.46;101353.06;4977125;28;45334;-91
2023/07/03 09:41:39;;;;;;;;;3.00;3.00;;;;;28.60;35.92;101356.97;4976273;28;45451;-92
2023/07/03 09:44:16;;;;;;;;;3.00;3.00;;;;;28.59;36.19;101364.22;4976620;28;45383;-91
2023/07/03 09:46:43;;;;;;;;;4.00;3.00;;;;;28.57;35.90;101360.09;4967839;28;47185;-83
2023/07/03 09:49:15;;;;;;;;;4.00;3.67;;;;;28.58;35.63;101369.75;4975046;28;45342;-83
2023/07/03 09:51:41;;;;;;;;;4.33;2.67;;;;;28.52;34.72;101363.41;4974841;28;45415;-80
2023/07/03 09:54:17;;;;;;;;;5.67;3.00;;;;;28.49;33.45;101362.00;4974985;28;45412;-77
2023/07/03 09:56:42;;;;;;;;;3.67;2.67;;;;;28.40;33.66;101364.03;4978563;28;45652;-78
2023/07/03 09:59:09;;;;;;;;;4.00;2.67;;;;;28.34;33.50;101367.53;4994313;28;45446;-78
2023/07/03 10:01:38;;;;;;;;;3.33;2.67;;;;;28.34;33.61;101372.09;4994567;28;45445;-84
2023/07/03 10:04:13;;;;;;;;;3.00;2.00;;;;;28.29;32.99;101370.84;5059064;28;45708;-83
2023/07/03 10:06:41;;;;;;;;;4.67;2.00;;;;;28.31;31.57;101367.16;5076452;28;46422;-80
2023/07/03 10:09:17;;;;;;;;;2.33;2.00;;;;;28.26;32.28;101367.81;5076527;28;46032;-80
2023/07/03 10:12:04;;;;;;;;;5.00;4.00;;;;;28.23;32.56;101378.91;5076606;28;45403;-78
2023/07/03 10:14:43;;;;;;;;;2.33;1.67;;;;;28.18;32.40;101374.19;5076479;28;45345;-86
2023/07/03 10:17:12;;;;;;;;;2.00;2.00;;;;;28.12;32.49;101375.03;5076236;28;45277;-79
2023/07/03 10:19:51;;;;;;;;;3.33;2.00;;;;;28.09;32.33;101364.75;5076461;28;45249;-84
2023/07/03 10:22:18;;;;;;;;;4.00;3.00;;;;;28.11;32.39;101379.56;5076513;28;45440;-81
2023/07/03 10:24:45;;;;;;;;;3.00;3.00;;;;;28.11;31.97;101382.22;5076000;28;45229;-77
2023/07/03 10:27:13;;;;;;;;;3.33;2.33;;;;;28.11;32.40;101378.72;5076111;28;46987;-85
2023/07/03 10:29:44;;;;;;;;;4.67;3.00;;;;;28.14;32.62;101379.13;5076162;28;45268;-79
2023/07/03 10:32:13;;;;;;;;;5.00;3.33;;;;;28.07;32.10;101384.50;5076239;28;45472;-78
2023/07/03 10:34:48;;;;;;;;;3.33;3.00;;;;;28.07;31.75;101394.38;5076292;28;45343;-85
2023/07/03 10:37:17;;;;;;;;;3.33;2.67;;;;;28.02;31.69;101391.50;5075920;28;45303;-83
2023/07/03 10:39:51;;;;;;;;;4.00;2.67;;;;;27.96;32.14;101396.66;5075765;28;45395;-84
2023/07/03 10:42:25;;;;;;;;;4.00;3.00;;;;;27.93;32.13;101390.88;5075807;28;45369;-79
2023/07/03 10:44:57;;;;;;;;;4.33;3.00;;;;;27.90;31.50;101393.97;5076082;28;45291;-86
2023/07/03 10:47:35;;;;;;;;;4.00;2.33;;;;;27.87;32.50;101389.88;5076300;28;45402;-85
2023/07/03 10:50:02;;;;;;;;;5.33;3.00;;;;;27.87;31.94;101384.50;5075971;28;45281;-87
2023/07/03 10:52:42;;;;;;;;;3.00;3.00;;;;;27.87;32.11;101391.75;5074998;28;45443;-85
2023/07/03 10:55:44;;;;;;;;;6.00;3.00;;;;;27.88;31.99;101390.69;5075544;28;45308;-85
2023/07/03 10:58:24;;;;;;;;;4.67;3.00;;;;;27.86;31.64;101382.88;5075903;28;46137;-86
2023/07/03 11:01:08;;;;;;;;;3.33;3.00;;;;;27.82;31.49;101392.34;5068947;28;45410;-83
2023/07/03 11:03:52;;;;;;;;;4.33;3.00;;;;;27.72;31.79;101390.88;5075846;28;45348;-86
2023/07/03 11:06:31;;;;;;;;;3.00;3.00;;;;;27.73;31.99;101389.88;5076941;28;45581;-89
2023/07/03 11:09:25;;;;;;;;;3.67;3.67;;;;;27.69;32.49;101401.19;5077624;28;45270;-93
2023/07/03 11:11:56;;;;;;;;;6.00;4.00;;;;;27.65;32.59;101410.63;5078236;28;45397;-94
2023/07/03 11:14:55;;;;;;;;;3.00;2.33;;;;;27.58;32.30;101398.09;5076713;28;45167;-84
2023/07/03 11:17:45;;;;;;;;;5.00;3.00;;;;;27.52;32.13;101399.72;5075496;28;45276;-85
2023/07/03 11:20:35;;;;;;;;;2.33;2.33;;;;;27.49;32.42;101405.47;5075601;28;46158;-84
2023/07/03 11:23:04;;;;;;;;;5.00;3.00;;;;;27.50;32.86;101400.97;5075228;28;45253;-83
2023/07/03 11:25:48;;;;;;;;;3.00;2.67;;;;;27.48;32.09;101403.03;5077683;28;45376;-83
2023/07/03 11:28:36;;;;;;;;;3.00;2.67;;;;;27.43;32.25;101400.13;5079096;28;45344;-80
2023/07/03 11:31:04;;;;;;;;;6.67;3.67;;;;;27.35;32.72;101387.78;5073866;28;46138;-81